sensor_id;sensor_type;location;lat;lon;timestamp;P1;durP1;ratioP1;P2;durP2;ratioP2
10719;SDS011;5411;58.386;15.560;2023-07-02T00:01:18;3.90;;;3.60;;
10719;SDS011;5411;58.386;15.560;2023-07-02T00:03:46;3.37;;;3.07;;
10719;SDS011;5411;58.386;15.560;2023-07-02T00:06:15;3.23;;;3.03;;
10719;SDS011;5411;58.386;15.560;2023-07-02T00:08:43;4.13;;;3.50;;
10719;SDS011;5411;58.386;15.560;2023-07-02T00:11:15;3.60;;;3.30;;
10719;SDS011;5411;58.386;15.560;2023-07-02T00:13:43;3.70;;;3.00;;
10719;SDS011;5411;58.386;15.560;2023-07-02T00:16:13;3.53;;;2.83;;
10719;SDS011;5411;58.386;15.560;2023-07-02T00:18:42;3.70;;;3.40;;
10719;SDS011;5411;58.386;15.560;2023-07-02T00:21:18;2.77;;;2.53;;
10719;SDS011;5411;58.386;15.560;2023-07-02T00:23:47;4.23;;;2.63;;
10719;SDS011;5411;58.386;15.560;2023-07-02T00:26:16;2.73;;;2.53;;
10719;SDS011;5411;58.386;15.560;2023-07-02T00:28:44;3.57;;;3.27;;
10719;SDS011;5411;58.386;15.560;2023-07-02T00:31:14;4.13;;;3.00;;
10719;SDS011;5411;58.386;15.560;2023-07-02T00:33:42;3.30;;;2.97;;
10719;SDS011;5411;58.386;15.560;2023-07-02T00:36:11;3.50;;;3.20;;
10719;SDS011;5411;58.386;15.560;2023-07-02T00:38:40;3.10;;;2.80;;
10719;SDS011;5411;58.386;15.560;2023-07-02T00:41:10;4.43;;;4.03;;
10719;SDS011;5411;58.386;15.560;2023-07-02T00:43:39;3.40;;;3.10;;
10719;SDS011;5411;58.386;15.560;2023-07-02T00:46:11;3.17;;;2.80;;
10719;SDS011;5411;58.386;15.560;2023-07-02T00:48:47;3.77;;;3.03;;
10719;SDS011;5411;58.386;15.560;2023-07-02T00:51:16;3.40;;;3.20;;
10719;SDS011;5411;58.386;15.560;2023-07-02T00:53:46;3.30;;;3.10;;
10719;SDS011;5411;58.386;15.560;2023-07-02T00:56:16;3.43;;;3.10;;
10719;SDS011;5411;58.386;15.560;2023-07-02T00:58:46;3.63;;;3.33;;
10719;SDS011;5411;58.386;15.560;2023-07-02T01:01:18;3.47;;;3.17;;
10719;SDS011;5411;58.386;15.560;2023-07-02T01:03:51;3.70;;;3.40;;
10719;SDS011;5411;58.386;15.560;2023-07-02T01:06:27;4.77;;;3.20;;
10719;SDS011;5411;58.386;15.560;2023-07-02T01:08:57;3.90;;;3.60;;
10719;SDS011;5411;58.386;15.560;2023-07-02T01:11:27;4.00;;;3.70;;
10719;SDS011;5411;58.386;15.560;2023-07-02T01:13:59;3.43;;;3.13;;
10719;SDS011;5411;58.386;15.560;2023-07-02T01:16:31;3.47;;;3.17;;
10719;SDS011;5411;58.386;15.560;2023-07-02T01:19:02;3.27;;;2.97;;
10719;SDS011;5411;58.386;15.560;2023-07-02T01:21:39;2.83;;;2.57;;
10719;SDS011;5411;58.386;15.560;2023-07-02T01:24:07;3.37;;;2.47;;
10719;SDS011;5411;58.386;15.560;2023-07-02T01:26:37;3.07;;;2.87;;
10719;SDS011;5411;58.386;15.560;2023-07-02T01:29:13;3.57;;;2.73;;
10719;SDS011;5411;58.386;15.560;2023-07-02T01:31:59;2.33;;;2.23;;
10719;SDS011;5411;58.386;15.560;2023-07-02T01:34:27;2.40;;;2.20;;
10719;SDS011;5411;58.386;15.560;2023-07-02T01:36:57;2.83;;;2.57;;
10719;SDS011;5411;58.386;15.560;2023-07-02T01:39:25;2.60;;;2.40;;
10719;SDS011;5411;58.386;15.560;2023-07-02T01:41:55;2.97;;;2.77;;
10719;SDS011;5411;58.386;15.560;2023-07-02T01:44:35;4.53;;;2.90;;
10719;SDS011;5411;58.386;15.560;2023-07-02T01:47:05;4.10;;;2.90;;
10719;SDS011;5411;58.386;15.560;2023-07-02T01:49:34;3.33;;;3.03;;
10719;SDS011;5411;58.386;15.560;2023-07-02T01:52:05;4.07;;;3.33;;
10719;SDS011;5411;58.386;15.560;2023-07-02T01:54:35;2.60;;;2.50;;
10719;SDS011;5411;58.386;15.560;2023-07-02T01:57:04;3.10;;;2.80;;
10719;SDS011;5411;58.386;15.560;2023-07-02T01:59:32;3.20;;;3.00;;
10719;SDS011;5411;58.386;15.560;2023-07-02T02:02:01;2.77;;;2.57;;
10719;SDS011;5411;58.386;15.560;2023-07-02T02:04:30;3.27;;;2.97;;
10719;SDS011;5411;58.386;15.560;2023-07-02T02:06:58;3.17;;;2.97;;
10719;SDS011;5411;58.386;15.560;2023-07-02T02:09:28;3.20;;;2.53;;
10719;SDS011;5411;58.386;15.560;2023-07-02T02:11:58;3.50;;;3.20;;
10719;SDS011;5411;58.386;15.560;2023-07-02T02:14:27;3.53;;;3.23;;
10719;SDS011;5411;58.386;15.560;2023-07-02T02:16:55;4.20;;;3.60;;
10719;SDS011;5411;58.386;15.560;2023-07-02T02:19:23;3.50;;;3.10;;
10719;SDS011;5411;58.386;15.560;2023-07-02T02:21:52;3.33;;;3.10;;
10719;SDS011;5411;58.386;15.560;2023-07-02T02:24:20;4.27;;;3.30;;
10719;SDS011;5411;58.386;15.560;2023-07-02T02:26:50;3.40;;;3.10;;
10719;SDS011;5411;58.386;15.560;2023-07-02T02:29:18;2.70;;;2.50;;
10719;SDS011;5411;58.386;15.560;2023-07-02T02:31:47;3.53;;;2.97;;
10719;SDS011;5411;58.386;15.560;2023-07-02T02:34:15;2.97;;;2.67;;
10719;SDS011;5411;58.386;15.560;2023-07-02T02:36:44;2.53;;;2.37;;
10719;SDS011;5411;58.386;15.560;2023-07-02T02:39:13;2.20;;;2.10;;
10719;SDS011;5411;58.386;15.560;2023-07-02T02:41:41;2.07;;;1.87;;
10719;SDS011;5411;58.386;15.560;2023-07-02T02:44:12;3.00;;;2.80;;
10719;SDS011;5411;58.386;15.560;2023-07-02T02:46:41;3.20;;;2.90;;
10719;SDS011;5411;58.386;15.560;2023-07-02T02:49:09;2.40;;;2.20;;
10719;SDS011;5411;58.386;15.560;2023-07-02T02:51:38;2.47;;;2.27;;
10719;SDS011;5411;58.386;15.560;2023-07-02T02:54:07;2.53;;;2.30;;
10719;SDS011;5411;58.386;15.560;2023-07-02T02:56:35;2.60;;;2.40;;
10719;SDS011;5411;58.386;15.560;2023-07-02T02:59:03;2.50;;;2.30;;
10719;SDS011;5411;58.386;15.560;2023-07-02T03:01:33;2.73;;;1.93;;
10719;SDS011;5411;58.386;15.560;2023-07-02T03:04:01;2.33;;;2.13;;
10719;SDS011;5411;58.386;15.560;2023-07-02T03:06:30;2.63;;;2.43;;
10719;SDS011;5411;58.386;15.560;2023-07-02T03:08:59;2.70;;;2.50;;
10719;SDS011;5411;58.386;15.560;2023-07-02T03:11:27;2.30;;;2.20;;
10719;SDS011;5411;58.386;15.560;2023-07-02T03:13:55;2.17;;;2.00;;
10719;SDS011;5411;58.386;15.560;2023-07-02T03:16:24;2.17;;;2.07;;
10719;SDS011;5411;58.386;15.560;2023-07-02T03:18:56;2.60;;;2.40;;
10719;SDS011;5411;58.386;15.560;2023-07-02T03:21:25;2.60;;;2.40;;
10719;SDS011;5411;58.386;15.560;2023-07-02T03:23:53;2.90;;;2.70;;
10719;SDS011;5411;58.386;15.560;2023-07-02T03:26:22;2.77;;;2.50;;
10719;SDS011;5411;58.386;15.560;2023-07-02T03:28:55;3.13;;;2.90;;
10719;SDS011;5411;58.386;15.560;2023-07-02T03:31:24;2.40;;;2.20;;
10719;SDS011;5411;58.386;15.560;2023-07-02T03:34:03;2.70;;;2.50;;
10719;SDS011;5411;58.386;15.560;2023-07-02T03:36:33;2.63;;;2.43;;
10719;SDS011;5411;58.386;15.560;2023-07-02T03:39:02;2.50;;;2.30;;
10719;SDS011;5411;58.386;15.560;2023-07-02T03:41:35;2.17;;;2.00;;
10719;SDS011;5411;58.386;15.560;2023-07-02T03:44:04;2.57;;;2.37;;
10719;SDS011;5411;58.386;15.560;2023-07-02T03:46:34;2.20;;;2.10;;
10719;SDS011;5411;58.386;15.560;2023-07-02T03:49:05;2.30;;;2.10;;
10719;SDS011;5411;58.386;15.560;2023-07-02T03:51:37;2.87;;;2.60;;
10719;SDS011;5411;58.386;15.560;2023-07-02T03:54:06;2.30;;;2.20;;
10719;SDS011;5411;58.386;15.560;2023-07-02T03:56:34;2.20;;;2.10;;
10719;SDS011;5411;58.386;15.560;2023-07-02T03:59:03;2.10;;;2.00;;
10719;SDS011;5411;58.386;15.560;2023-07-02T04:01:31;2.77;;;2.07;;
10719;SDS011;5411;58.386;15.560;2023-07-02T04:04:00;2.00;;;1.80;;
10719;SDS011;5411;58.386;15.560;2023-07-02T04:06:30;2.07;;;1.97;;
10719;SDS011;5411;58.386;15.560;2023-07-02T04:09:00;2.17;;;1.90;;
10719;SDS011;5411;58.386;15.560;2023-07-02T04:11:28;2.77;;;2.33;;
10719;SDS011;5411;58.386;15.560;2023-07-02T04:13:57;1.97;;;1.87;;
10719;SDS011;5411;58.386;15.560;2023-07-02T04:16:25;2.10;;;2.00;;
10719;SDS011;5411;58.386;15.560;2023-07-02T04:18:53;2.57;;;2.33;;
10719;SDS011;5411;58.386;15.560;2023-07-02T04:21:22;2.87;;;2.20;;
10719;SDS011;5411;58.386;15.560;2023-07-02T04:23:51;2.20;;;2.10;;
10719;SDS011;5411;58.386;15.560;2023-07-02T04:26:20;1.90;;;1.80;;
10719;SDS011;5411;58.386;15.560;2023-07-02T04:29:09;1.97;;;1.87;;
10719;SDS011;5411;58.386;15.560;2023-07-02T04:31:37;2.43;;;2.23;;
10719;SDS011;5411;58.386;15.560;2023-07-02T04:34:06;2.40;;;2.20;;
10719;SDS011;5411;58.386;15.560;2023-07-02T04:36:35;2.70;;;2.60;;
10719;SDS011;5411;58.386;15.560;2023-07-02T04:39:05;3.17;;;2.07;;
10719;SDS011;5411;58.386;15.560;2023-07-02T04:41:33;2.53;;;2.30;;
10719;SDS011;5411;58.386;15.560;2023-07-02T04:44:02;3.37;;;2.33;;
10719;SDS011;5411;58.386;15.560;2023-07-02T04:46:31;2.50;;;2.30;;
10719;SDS011;5411;58.386;15.560;2023-07-02T04:48:59;3.17;;;2.63;;
10719;SDS011;5411;58.386;15.560;2023-07-02T04:51:28;2.90;;;2.50;;
10719;SDS011;5411;58.386;15.560;2023-07-02T04:53:57;2.23;;;2.13;;
10719;SDS011;5411;58.386;15.560;2023-07-02T04:56:32;2.50;;;2.30;;
10719;SDS011;5411;58.386;15.560;2023-07-02T04:59:00;2.43;;;2.23;;
10719;SDS011;5411;58.386;15.560;2023-07-02T05:01:28;2.30;;;2.20;;
10719;SDS011;5411;58.386;15.560;2023-07-02T05:03:57;3.13;;;2.50;;
10719;SDS011;5411;58.386;15.560;2023-07-02T05:06:25;2.60;;;2.40;;
10719;SDS011;5411;58.386;15.560;2023-07-02T05:08:53;2.70;;;2.27;;
10719;SDS011;5411;58.386;15.560;2023-07-02T05:11:22;2.70;;;2.50;;
10719;SDS011;5411;58.386;15.560;2023-07-02T05:13:52;3.60;;;2.57;;
10719;SDS011;5411;58.386;15.560;2023-07-02T05:16:20;2.40;;;2.27;;
10719;SDS011;5411;58.386;15.560;2023-07-02T05:18:49;2.40;;;2.20;;
10719;SDS011;5411;58.386;15.560;2023-07-02T05:21:17;3.20;;;2.57;;
10719;SDS011;5411;58.386;15.560;2023-07-02T05:23:46;2.23;;;2.13;;
10719;SDS011;5411;58.386;15.560;2023-07-02T05:26:15;3.03;;;2.67;;
10719;SDS011;5411;58.386;15.560;2023-07-02T05:28:44;2.27;;;2.07;;
10719;SDS011;5411;58.386;15.560;2023-07-02T05:31:14;3.40;;;2.40;;
10719;SDS011;5411;58.386;15.560;2023-07-02T05:33:42;2.27;;;2.07;;
10719;SDS011;5411;58.386;15.560;2023-07-02T05:36:10;4.93;;;1.80;;
10719;SDS011;5411;58.386;15.560;2023-07-02T05:38:44;2.10;;;1.97;;
10719;SDS011;5411;58.386;15.560;2023-07-02T05:41:17;2.23;;;2.00;;
10719;SDS011;5411;58.386;15.560;2023-07-02T05:43:48;2.30;;;2.10;;
10719;SDS011;5411;58.386;15.560;2023-07-02T05:46:19;2.30;;;2.10;;
10719;SDS011;5411;58.386;15.560;2023-07-02T05:48:56;1.97;;;1.70;;
10719;SDS011;5411;58.386;15.560;2023-07-02T05:51:29;2.13;;;1.93;;
10719;SDS011;5411;58.386;15.560;2023-07-02T05:53:58;2.67;;;1.70;;
10719;SDS011;5411;58.386;15.560;2023-07-02T05:56:26;1.90;;;1.80;;
10719;SDS011;5411;58.386;15.560;2023-07-02T05:58:54;2.43;;;2.23;;
10719;SDS011;5411;58.386;15.560;2023-07-02T06:01:24;2.30;;;2.10;;
10719;SDS011;5411;58.386;15.560;2023-07-02T06:03:55;3.37;;;1.90;;
10719;SDS011;5411;58.386;15.560;2023-07-02T06:06:24;2.33;;;2.10;;
10719;SDS011;5411;58.386;15.560;2023-07-02T06:08:52;1.93;;;1.80;;
10719;SDS011;5411;58.386;15.560;2023-07-02T06:11:20;2.50;;;2.10;;
10719;SDS011;5411;58.386;15.560;2023-07-02T06:13:49;2.30;;;2.10;;
10719;SDS011;5411;58.386;15.560;2023-07-02T06:16:17;2.50;;;2.17;;
10719;SDS011;5411;58.386;15.560;2023-07-02T06:18:47;3.00;;;1.83;;
10719;SDS011;5411;58.386;15.560;2023-07-02T06:21:16;2.73;;;2.20;;
10719;SDS011;5411;58.386;15.560;2023-07-02T06:23:46;2.87;;;2.00;;
10719;SDS011;5411;58.386;15.560;2023-07-02T06:28:58;2.50;;;2.00;;
10719;SDS011;5411;58.386;15.560;2023-07-02T06:31:27;2.87;;;2.20;;
10719;SDS011;5411;58.386;15.560;2023-07-02T06:33:58;2.50;;;1.80;;
10719;SDS011;5411;58.386;15.560;2023-07-02T06:36:26;3.70;;;2.27;;
10719;SDS011;5411;58.386;15.560;2023-07-02T06:38:55;2.87;;;2.20;;
10719;SDS011;5411;58.386;15.560;2023-07-02T06:41:32;2.30;;;2.10;;
10719;SDS011;5411;58.386;15.560;2023-07-02T06:44:03;3.27;;;2.20;;
10719;SDS011;5411;58.386;15.560;2023-07-02T06:46:32;2.30;;;2.10;;
10719;SDS011;5411;58.386;15.560;2023-07-02T06:49:02;3.80;;;2.00;;
10719;SDS011;5411;58.386;15.560;2023-07-02T06:51:30;3.43;;;2.10;;
10719;SDS011;5411;58.386;15.560;2023-07-02T06:54:00;3.87;;;2.27;;
10719;SDS011;5411;58.386;15.560;2023-07-02T06:56:28;2.30;;;2.00;;
10719;SDS011;5411;58.386;15.560;2023-07-02T06:58:57;2.53;;;1.97;;
10719;SDS011;5411;58.386;15.560;2023-07-02T07:01:26;4.30;;;2.40;;
10719;SDS011;5411;58.386;15.560;2023-07-02T07:03:56;2.77;;;1.70;;
10719;SDS011;5411;58.386;15.560;2023-07-02T07:06:28;2.10;;;1.77;;
10719;SDS011;5411;58.386;15.560;2023-07-02T07:08:56;2.47;;;2.20;;
10719;SDS011;5411;58.386;15.560;2023-07-02T07:11:25;3.47;;;2.60;;
10719;SDS011;5411;58.386;15.560;2023-07-02T07:13:53;2.30;;;2.03;;
10719;SDS011;5411;58.386;15.560;2023-07-02T07:16:21;3.07;;;2.30;;
10719;SDS011;5411;58.386;15.560;2023-07-02T07:18:49;4.27;;;1.87;;
10719;SDS011;5411;58.386;15.560;2023-07-02T07:21:18;3.37;;;2.40;;
10719;SDS011;5411;58.386;15.560;2023-07-02T07:23:48;2.30;;;2.10;;
10719;SDS011;5411;58.386;15.560;2023-07-02T07:26:17;3.00;;;2.20;;
10719;SDS011;5411;58.386;15.560;2023-07-02T07:28:45;3.57;;;2.10;;
10719;SDS011;5411;58.386;15.560;2023-07-02T07:31:13;2.33;;;2.13;;
10719;SDS011;5411;58.386;15.560;2023-07-02T07:33:42;2.87;;;2.20;;
10719;SDS011;5411;58.386;15.560;2023-07-02T07:36:11;2.57;;;2.27;;
10719;SDS011;5411;58.386;15.560;2023-07-02T07:38:42;2.50;;;2.30;;
10719;SDS011;5411;58.386;15.560;2023-07-02T07:41:12;5.27;;;2.17;;
10719;SDS011;5411;58.386;15.560;2023-07-02T07:43:40;2.63;;;2.10;;
10719;SDS011;5411;58.386;15.560;2023-07-02T07:46:08;1.80;;;1.70;;
10719;SDS011;5411;58.386;15.560;2023-07-02T07:48:37;2.17;;;2.07;;
10719;SDS011;5411;58.386;15.560;2023-07-02T07:51:05;2.87;;;2.33;;
10719;SDS011;5411;58.386;15.560;2023-07-02T07:53:37;3.80;;;1.90;;
10719;SDS011;5411;58.386;15.560;2023-07-02T07:56:06;2.77;;;2.13;;
10719;SDS011;5411;58.386;15.560;2023-07-02T07:58:36;3.37;;;1.90;;
10719;SDS011;5411;58.386;15.560;2023-07-02T08:01:04;3.13;;;1.90;;
10719;SDS011;5411;58.386;15.560;2023-07-02T08:03:33;2.30;;;1.83;;
10719;SDS011;5411;58.386;15.560;2023-07-02T08:06:01;3.27;;;2.33;;
10719;SDS011;5411;58.386;15.560;2023-07-02T08:08:29;4.03;;;2.40;;
10719;SDS011;5411;58.386;15.560;2023-07-02T08:11:01;3.47;;;1.77;;
10719;SDS011;5411;58.386;15.560;2023-07-02T08:13:29;2.60;;;2.40;;
10719;SDS011;5411;58.386;15.560;2023-07-02T08:15:59;3.33;;;2.10;;
10719;SDS011;5411;58.386;15.560;2023-07-02T08:18:27;2.90;;;2.07;;
10719;SDS011;5411;58.386;15.560;2023-07-02T08:20:56;3.23;;;1.60;;
10719;SDS011;5411;58.386;15.560;2023-07-02T08:23:30;3.07;;;2.20;;
10719;SDS011;5411;58.386;15.560;2023-07-02T08:25:59;2.10;;;1.90;;
10719;SDS011;5411;58.386;15.560;2023-07-02T08:28:27;2.47;;;2.07;;
10719;SDS011;5411;58.386;15.560;2023-07-02T08:30:56;2.10;;;1.80;;
10719;SDS011;5411;58.386;15.560;2023-07-02T08:33:28;3.43;;;2.17;;
10719;SDS011;5411;58.386;15.560;2023-07-02T08:35:56;4.60;;;2.30;;
10719;SDS011;5411;58.386;15.560;2023-07-02T08:38:24;2.20;;;2.00;;
10719;SDS011;5411;58.386;15.560;2023-07-02T08:40:55;3.80;;;2.20;;
10719;SDS011;5411;58.386;15.560;2023-07-02T08:43:24;3.27;;;2.07;;
10719;SDS011;5411;58.386;15.560;2023-07-02T08:45:54;2.50;;;1.67;;
10719;SDS011;5411;58.386;15.560;2023-07-02T08:48:23;2.20;;;2.00;;
10719;SDS011;5411;58.386;15.560;2023-07-02T08:50:54;2.00;;;1.90;;
10719;SDS011;5411;58.386;15.560;2023-07-02T08:53:23;2.73;;;1.97;;
10719;SDS011;5411;58.386;15.560;2023-07-02T08:55:56;1.63;;;1.53;;
10719;SDS011;5411;58.386;15.560;2023-07-02T08:58:25;3.33;;;1.77;;
10719;SDS011;5411;58.386;15.560;2023-07-02T09:01:04;2.10;;;1.90;;
10719;SDS011;5411;58.386;15.560;2023-07-02T09:03:33;3.03;;;1.60;;
10719;SDS011;5411;58.386;15.560;2023-07-02T09:06:05;1.83;;;1.60;;
10719;SDS011;5411;58.386;15.560;2023-07-02T09:08:35;3.27;;;1.70;;
10719;SDS011;5411;58.386;15.560;2023-07-02T09:11:07;3.10;;;1.67;;
10719;SDS011;5411;58.386;15.560;2023-07-02T09:13:43;3.70;;;2.17;;
10719;SDS011;5411;58.386;15.560;2023-07-02T09:16:22;1.50;;;1.40;;
10719;SDS011;5411;58.386;15.560;2023-07-02T09:18:56;2.43;;;1.70;;
10719;SDS011;5411;58.386;15.560;2023-07-02T09:21:27;2.23;;;1.80;;
10719;SDS011;5411;58.386;15.560;2023-07-02T09:23:56;2.77;;;1.80;;
10719;SDS011;5411;58.386;15.560;2023-07-02T09:26:25;2.90;;;1.80;;
10719;SDS011;5411;58.386;15.560;2023-07-02T09:29:00;2.37;;;1.97;;
10719;SDS011;5411;58.386;15.560;2023-07-02T09:31:29;2.30;;;1.93;;
10719;SDS011;5411;58.386;15.560;2023-07-02T09:34:01;3.77;;;2.20;;
10719;SDS011;5411;58.386;15.560;2023-07-02T09:36:31;4.33;;;2.37;;
10719;SDS011;5411;58.386;15.560;2023-07-02T09:39:00;4.10;;;2.60;;
10719;SDS011;5411;58.386;15.560;2023-07-02T09:41:28;4.13;;;2.37;;
10719;SDS011;5411;58.386;15.560;2023-07-02T09:43:58;6.43;;;2.87;;
10719;SDS011;5411;58.386;15.560;2023-07-02T09:46:28;4.33;;;3.00;;
10719;SDS011;5411;58.386;15.560;2023-07-02T09:49:00;5.43;;;2.47;;
10719;SDS011;5411;58.386;15.560;2023-07-02T09:51:28;4.30;;;2.70;;
10719;SDS011;5411;58.386;15.560;2023-07-02T09:53:58;6.60;;;3.23;;
10719;SDS011;5411;58.386;15.560;2023-07-02T09:56:27;8.53;;;3.80;;
10719;SDS011;5411;58.386;15.560;2023-07-02T09:58:55;6.80;;;3.10;;
10719;SDS011;5411;58.386;15.560;2023-07-02T10:01:24;4.13;;;3.03;;
10719;SDS011;5411;58.386;15.560;2023-07-02T10:03:53;6.13;;;2.93;;
10719;SDS011;5411;58.386;15.560;2023-07-02T10:06:22;7.03;;;3.17;;
10719;SDS011;5411;58.386;15.560;2023-07-02T10:08:53;6.77;;;3.13;;
10719;SDS011;5411;58.386;15.560;2023-07-02T10:11:33;10.17;;;3.27;;
10719;SDS011;5411;58.386;15.560;2023-07-02T10:14:02;8.77;;;3.10;;
10719;SDS011;5411;58.386;15.560;2023-07-02T10:16:31;6.83;;;3.10;;
10719;SDS011;5411;58.386;15.560;2023-07-02T10:19:08;6.33;;;3.20;;
10719;SDS011;5411;58.386;15.560;2023-07-02T10:21:38;6.30;;;2.83;;
10719;SDS011;5411;58.386;15.560;2023-07-02T10:24:10;7.20;;;3.23;;
10719;SDS011;5411;58.386;15.560;2023-07-02T10:26:53;7.43;;;3.03;;
10719;SDS011;5411;58.386;15.560;2023-07-02T10:29:23;5.63;;;3.13;;
10719;SDS011;5411;58.386;15.560;2023-07-02T10:31:53;6.50;;;2.87;;
10719;SDS011;5411;58.386;15.560;2023-07-02T10:34:30;5.60;;;2.67;;
10719;SDS011;5411;58.386;15.560;2023-07-02T10:36:59;7.13;;;2.80;;
10719;SDS011;5411;58.386;15.560;2023-07-02T10:39:29;7.07;;;3.13;;
10719;SDS011;5411;58.386;15.560;2023-07-02T10:42:06;7.50;;;2.93;;
10719;SDS011;5411;58.386;15.560;2023-07-02T10:44:47;6.43;;;3.00;;
10719;SDS011;5411;58.386;15.560;2023-07-02T10:47:18;6.93;;;2.90;;
10719;SDS011;5411;58.386;15.560;2023-07-02T10:49:47;7.57;;;2.70;;
10719;SDS011;5411;58.386;15.560;2023-07-02T10:52:20;9.03;;;3.10;;
10719;SDS011;5411;58.386;15.560;2023-07-02T10:54:49;7.07;;;3.13;;
10719;SDS011;5411;58.386;15.560;2023-07-02T10:57:19;5.50;;;2.60;;
10719;SDS011;5411;58.386;15.560;2023-07-02T10:59:48;6.37;;;3.20;;
10719;SDS011;5411;58.386;15.560;2023-07-02T11:02:17;8.20;;;2.80;;
10719;SDS011;5411;58.386;15.560;2023-07-02T11:04:46;5.43;;;3.03;;
10719;SDS011;5411;58.386;15.560;2023-07-02T11:07:21;6.97;;;3.10;;
10719;SDS011;5411;58.386;15.560;2023-07-02T11:09:52;5.83;;;2.60;;
10719;SDS011;5411;58.386;15.560;2023-07-02T11:12:28;7.77;;;3.27;;
10719;SDS011;5411;58.386;15.560;2023-07-02T11:15:06;6.27;;;2.80;;
10719;SDS011;5411;58.386;15.560;2023-07-02T11:17:35;5.63;;;2.93;;
10719;SDS011;5411;58.386;15.560;2023-07-02T11:20:04;4.90;;;2.70;;
10719;SDS011;5411;58.386;15.560;2023-07-02T11:22:35;10.07;;;3.17;;
10719;SDS011;5411;58.386;15.560;2023-07-02T11:25:15;5.37;;;2.87;;
10719;SDS011;5411;58.386;15.560;2023-07-02T11:27:48;6.43;;;2.70;;
10719;SDS011;5411;58.386;15.560;2023-07-02T11:30:16;4.57;;;2.83;;
10719;SDS011;5411;58.386;15.560;2023-07-02T11:32:49;6.17;;;2.60;;
10719;SDS011;5411;58.386;15.560;2023-07-02T11:35:18;4.53;;;2.67;;
10719;SDS011;5411;58.386;15.560;2023-07-02T11:37:47;7.63;;;2.60;;
10719;SDS011;5411;58.386;15.560;2023-07-02T11:40:17;6.13;;;2.50;;
10719;SDS011;5411;58.386;15.560;2023-07-02T11:42:50;5.70;;;2.73;;
10719;SDS011;5411;58.386;15.560;2023-07-02T11:45:19;7.60;;;3.33;;
10719;SDS011;5411;58.386;15.560;2023-07-02T11:47:47;5.97;;;3.10;;
10719;SDS011;5411;58.386;15.560;2023-07-02T11:50:15;6.93;;;2.50;;
10719;SDS011;5411;58.386;15.560;2023-07-02T11:52:52;4.53;;;2.47;;
10719;SDS011;5411;58.386;15.560;2023-07-02T11:55:21;5.23;;;2.70;;
10719;SDS011;5411;58.386;15.560;2023-07-02T11:57:51;5.03;;;2.50;;
10719;SDS011;5411;58.386;15.560;2023-07-02T12:00:20;4.73;;;2.77;;
10719;SDS011;5411;58.386;15.560;2023-07-02T12:02:51;4.70;;;2.60;;
10719;SDS011;5411;58.386;15.560;2023-07-02T12:05:19;8.17;;;2.60;;
10719;SDS011;5411;58.386;15.560;2023-07-02T12:07:47;5.40;;;2.53;;
10719;SDS011;5411;58.386;15.560;2023-07-02T12:10:18;4.30;;;2.37;;
10719;SDS011;5411;58.386;15.560;2023-07-02T12:12:46;2.70;;;2.17;;
10719;SDS011;5411;58.386;15.560;2023-07-02T12:15:16;4.47;;;2.27;;
10719;SDS011;5411;58.386;15.560;2023-07-02T12:17:45;4.07;;;2.07;;
10719;SDS011;5411;58.386;15.560;2023-07-02T12:20:13;3.93;;;1.80;;
10719;SDS011;5411;58.386;15.560;2023-07-02T12:22:45;3.20;;;1.63;;
10719;SDS011;5411;58.386;15.560;2023-07-02T12:25:13;4.70;;;2.07;;
10719;SDS011;5411;58.386;15.560;2023-07-02T12:27:43;5.23;;;2.13;;
10719;SDS011;5411;58.386;15.560;2023-07-02T12:30:11;3.97;;;1.80;;
10719;SDS011;5411;58.386;15.560;2023-07-02T12:32:45;3.50;;;2.17;;
10719;SDS011;5411;58.386;15.560;2023-07-02T12:35:14;5.03;;;2.50;;
10719;SDS011;5411;58.386;15.560;2023-07-02T12:37:43;3.70;;;1.80;;
10719;SDS011;5411;58.386;15.560;2023-07-02T12:40:14;4.90;;;2.10;;
10719;SDS011;5411;58.386;15.560;2023-07-02T12:42:43;2.10;;;1.87;;
10719;SDS011;5411;58.386;15.560;2023-07-02T12:45:13;6.00;;;2.37;;
10719;SDS011;5411;58.386;15.560;2023-07-02T12:47:48;2.53;;;1.93;;
10719;SDS011;5411;58.386;15.560;2023-07-02T12:50:16;2.47;;;1.80;;
10719;SDS011;5411;58.386;15.560;2023-07-02T12:52:46;3.50;;;2.00;;
10719;SDS011;5411;58.386;15.560;2023-07-02T12:55:14;3.13;;;1.53;;
10719;SDS011;5411;58.386;15.560;2023-07-02T12:57:42;4.03;;;1.93;;
10719;SDS011;5411;58.386;15.560;2023-07-02T13:00:14;3.17;;;2.07;;
10719;SDS011;5411;58.386;15.560;2023-07-02T13:02:43;2.83;;;1.90;;
10719;SDS011;5411;58.386;15.560;2023-07-02T13:05:30;2.63;;;1.90;;
10719;SDS011;5411;58.386;15.560;2023-07-02T13:07:59;4.07;;;1.90;;
10719;SDS011;5411;58.386;15.560;2023-07-02T13:10:28;2.87;;;2.00;;
10719;SDS011;5411;58.386;15.560;2023-07-02T13:12:57;2.57;;;1.80;;
10719;SDS011;5411;58.386;15.560;2023-07-02T13:15:46;5.77;;;2.30;;
10719;SDS011;5411;58.386;15.560;2023-07-02T13:18:18;3.03;;;1.87;;
10719;SDS011;5411;58.386;15.560;2023-07-02T13:20:48;2.23;;;1.90;;
10719;SDS011;5411;58.386;15.560;2023-07-02T13:23:16;4.07;;;1.90;;
10719;SDS011;5411;58.386;15.560;2023-07-02T13:25:45;4.43;;;1.80;;
10719;SDS011;5411;58.386;15.560;2023-07-02T13:28:14;4.93;;;2.40;;
10719;SDS011;5411;58.386;15.560;2023-07-02T13:30:43;3.60;;;2.20;;
10719;SDS011;5411;58.386;15.560;2023-07-02T13:33:14;4.57;;;2.10;;
10719;SDS011;5411;58.386;15.560;2023-07-02T13:35:43;2.97;;;1.93;;
10719;SDS011;5411;58.386;15.560;2023-07-02T13:38:14;3.87;;;1.93;;
10719;SDS011;5411;58.386;15.560;2023-07-02T13:40:43;5.43;;;2.30;;
10719;SDS011;5411;58.386;15.560;2023-07-02T13:43:11;2.50;;;1.70;;
10719;SDS011;5411;58.386;15.560;2023-07-02T13:45:39;4.53;;;2.33;;
10719;SDS011;5411;58.386;15.560;2023-07-02T13:48:09;3.37;;;2.13;;
10719;SDS011;5411;58.386;15.560;2023-07-02T13:50:37;3.67;;;2.20;;
10719;SDS011;5411;58.386;15.560;2023-07-02T13:53:09;3.90;;;2.30;;
10719;SDS011;5411;58.386;15.560;2023-07-02T13:55:39;3.10;;;2.17;;
10719;SDS011;5411;58.386;15.560;2023-07-02T13:58:07;5.13;;;2.20;;
10719;SDS011;5411;58.386;15.560;2023-07-02T14:00:37;3.53;;;2.13;;
10719;SDS011;5411;58.386;15.560;2023-07-02T14:03:06;4.43;;;2.10;;
10719;SDS011;5411;58.386;15.560;2023-07-02T14:05:37;4.67;;;2.20;;
10719;SDS011;5411;58.386;15.560;2023-07-02T14:08:05;3.60;;;2.20;;
10719;SDS011;5411;58.386;15.560;2023-07-02T14:10:43;4.17;;;2.00;;
10719;SDS011;5411;58.386;15.560;2023-07-02T14:13:15;3.77;;;1.90;;
10719;SDS011;5411;58.386;15.560;2023-07-02T14:15:44;4.97;;;1.90;;
10719;SDS011;5411;58.386;15.560;2023-07-02T14:18:14;6.07;;;2.10;;
10719;SDS011;5411;58.386;15.560;2023-07-02T14:20:42;3.47;;;2.00;;
10719;SDS011;5411;58.386;15.560;2023-07-02T14:23:10;2.07;;;1.77;;
10719;SDS011;5411;58.386;15.560;2023-07-02T14:25:39;3.20;;;1.57;;
10719;SDS011;5411;58.386;15.560;2023-07-02T14:28:08;2.80;;;1.60;;
10719;SDS011;5411;58.386;15.560;2023-07-02T14:30:37;2.73;;;1.50;;
10719;SDS011;5411;58.386;15.560;2023-07-02T14:33:06;2.60;;;1.30;;
10719;SDS011;5411;58.386;15.560;2023-07-02T14:35:35;2.23;;;1.77;;
10719;SDS011;5411;58.386;15.560;2023-07-02T14:38:04;2.13;;;1.43;;
10719;SDS011;5411;58.386;15.560;2023-07-02T14:40:33;2.77;;;1.60;;
10719;SDS011;5411;58.386;15.560;2023-07-02T14:43:03;1.97;;;1.77;;
10719;SDS011;5411;58.386;15.560;2023-07-02T14:45:31;2.83;;;2.10;;
10719;SDS011;5411;58.386;15.560;2023-07-02T14:48:00;4.20;;;2.10;;
10719;SDS011;5411;58.386;15.560;2023-07-02T14:50:32;3.37;;;1.70;;
10719;SDS011;5411;58.386;15.560;2023-07-02T14:53:01;3.13;;;1.90;;
10719;SDS011;5411;58.386;15.560;2023-07-02T14:55:29;2.33;;;1.63;;
10719;SDS011;5411;58.386;15.560;2023-07-02T14:57:59;3.60;;;2.03;;
10719;SDS011;5411;58.386;15.560;2023-07-02T15:00:28;2.63;;;1.90;;
10719;SDS011;5411;58.386;15.560;2023-07-02T15:02:56;3.63;;;2.30;;
10719;SDS011;5411;58.386;15.560;2023-07-02T15:05:24;4.10;;;2.20;;
10719;SDS011;5411;58.386;15.560;2023-07-02T15:07:54;2.20;;;2.00;;